Time;durP1;ratioP1;P1;durP2;ratioP2;P2;SDS_P1;SDS_P2;PMS_P1;PMS_P2;Temp;Humidity;BMP_temperature;BMP_pressure;BME280_temperature;BME280_humidity;BME280_pressure;Samples;Min_cycle;Max_cycle;Signal;HPM_P1;HPM_P2
2022/04/25 00:00:35;;;;;;;;;;;;;;;16.88;55.10;100743.19;1033352;28;737;-61
2022/04/25 00:01:26;;;;;;;;;;;;;;;16.87;55.48;100746.88;1034137;28;732;-60
2022/04/25 00:02:16;;;;;;;;;;;;;;;16.86;55.51;100747.00;1034759;28;764;-61
2022/04/25 00:03:07;;;;;;;;;;;;;;;16.84;55.61;100747.16;1033986;28;1704;-61
2022/04/25 00:03:57;;;;;;;;;;;;;;;16.86;55.11;100747.00;1034138;28;705;-61
2022/04/25 00:04:48;;;;;;;;;;;;;;;16.86;55.15;100750.56;1033318;28;706;-61
2022/04/25 00:05:38;;;;;;;;;;;;;;;16.86;55.30;100744.31;1034393;28;721;-61
2022/04/25 00:06:28;;;;;;;;;;;;;;;16.84;54.95;100741.75;1034101;28;671;-61
2022/04/25 00:07:19;;;;;;;;;;;;;;;16.83;54.93;100750.88;1034112;28;1974;-61
2022/04/25 00:08:09;;;;;;;;;;;;;;;16.84;55.11;100747.16;1033749;28;705;-60
2022/04/25 00:09:00;;;;;;;;;;;;;;;16.84;55.06;100751.72;1034133;28;647;-61
2022/04/25 00:09:50;;;;;;;;;;;;;;;16.84;55.47;100743.63;1034062;28;665;-60
2022/04/25 00:10:40;;;;;;;;;;;;;;;16.84;54.87;100747.16;1033639;28;922;-60
2022/04/25 00:11:31;;;;;;;;;;;;;;;16.82;55.10;100748.31;1034650;28;639;-60
2022/04/25 00:12:22;;;;;;;;;;;;;;;16.81;55.24;100746.59;1034136;28;658;-61
2022/04/25 00:13:13;;;;;;;;;;;;;;;16.81;54.77;100752.84;1034135;28;642;-61
2022/04/25 00:14:06;;;;;;;;;;;;;;;16.81;54.88;100746.59;1034162;28;686;-61
2022/04/25 00:14:57;;;;;;;;;;;;;;;16.80;55.19;100751.13;1034085;28;645;-60
2022/04/25 00:15:47;;;;;;;;;;;;;;;16.81;54.92;100747.47;1034163;28;662;-61
2022/04/25 00:16:37;;;;;;;;;;;;;;;16.83;54.83;100750.00;1034204;28;701;-61
2022/04/25 00:17:28;;;;;;;;;;;;;;;16.81;55.41;100747.47;1033611;28;673;-61
2022/04/25 00:18:18;;;;;;;;;;;;;;;16.80;54.95;100750.28;1033508;28;673;-60
2022/04/25 00:19:09;;;;;;;;;;;;;;;16.79;55.37;100752.13;1034124;28;693;-60
2022/04/25 00:19:59;;;;;;;;;;;;;;;16.79;55.09;100756.66;1034050;28;661;-61
2022/04/25 00:20:50;;;;;;;;;;;;;;;16.78;54.68;100741.50;1034160;28;677;-61
2022/04/25 00:21:40;;;;;;;;;;;;;;;16.76;54.90;100738.94;1034126;28;615;-60
2022/04/25 00:22:31;;;;;;;;;;;;;;;16.74;55.09;100751.69;1034170;28;709;-61
2022/04/25 00:23:21;;;;;;;;;;;;;;;16.74;55.58;100743.63;1034190;28;682;-61
2022/04/25 00:24:12;;;;;;;;;;;;;;;16.75;55.10;100737.25;1037801;28;1765;-61
2022/04/25 00:25:02;;;;;;;;;;;;;;;16.76;54.77;100743.47;1037598;28;733;-61
2022/04/25 00:25:53;;;;;;;;;;;;;;;16.74;55.04;100749.00;1037066;28;615;-61
2022/04/25 00:26:43;;;;;;;;;;;;;;;16.74;54.81;100746.31;1036709;28;670;-61
2022/04/25 00:27:34;;;;;;;;;;;;;;;16.77;55.01;100748.72;1039922;28;631;-60
2022/04/25 00:28:24;;;;;;;;;;;;;;;16.76;55.19;100749.72;1040187;28;642;-60
2022/04/25 00:29:14;;;;;;;;;;;;;;;16.75;54.91;100753.41;1040577;28;693;-60
2022/04/25 00:30:05;;;;;;;;;;;;;;;16.74;55.28;100746.31;1042440;28;742;-60
2022/04/25 00:30:55;;;;;;;;;;;;;;;16.74;54.96;100753.53;1037316;28;646;-60
2022/04/25 00:31:46;;;;;;;;;;;;;;;16.73;54.80;100746.47;1036188;28;741;-60
2022/04/25 00:32:36;;;;;;;;;;;;;;;16.73;54.82;100750.00;1036809;28;1582;-60
2022/04/25 00:33:27;;;;;;;;;;;;;;;16.72;55.35;100748.28;1036649;28;654;-61
2022/04/25 00:34:17;;;;;;;;;;;;;;;16.72;55.22;100742.06;1037077;28;886;-60
2022/04/25 00:35:07;;;;;;;;;;;;;;;16.71;54.95;100743.91;1036865;28;655;-61
2022/04/25 00:35:58;;;;;;;;;;;;;;;16.71;54.72;100749.28;1036400;28;939;-60
2022/04/25 00:36:48;;;;;;;;;;;;;;;16.73;54.59;100744.63;1037562;28;725;-60
2022/04/25 00:37:39;;;;;;;;;;;;;;;16.71;54.64;100741.22;1036458;28;631;-61
2022/04/25 00:38:29;;;;;;;;;;;;;;;16.71;54.85;100741.22;1037616;28;687;-61
2022/04/25 00:39:20;;;;;;;;;;;;;;;16.69;55.02;100743.19;1036318;28;702;-60
2022/04/25 00:40:10;;;;;;;;;;;;;;;16.70;54.94;100738.66;1037493;28;626;-61
2022/04/25 00:41:00;;;;;;;;;;;;;;;16.69;54.95;100737.81;1037372;28;618;-61
2022/04/25 00:41:51;;;;;;;;;;;;;;;16.67;55.00;100740.63;1037391;28;705;-61
2022/04/25 00:42:41;;;;;;;;;;;;;;;16.68;54.95;100744.19;1036951;28;713;-60
2022/04/25 00:43:32;;;;;;;;;;;;;;;16.66;54.76;100735.41;1036889;28;630;-61
2022/04/25 00:44:23;;;;;;;;;;;;;;;16.66;55.17;100732.69;1036472;28;677;-60
2022/04/25 00:45:13;;;;;;;;;;;;;;;16.64;54.88;100732.88;1036095;28;725;-61
2022/04/25 00:46:04;;;;;;;;;;;;;;;16.66;54.88;100738.09;1036698;28;657;-60
2022/04/25 00:46:55;;;;;;;;;;;;;;;16.66;54.83;100738.09;1037080;28;744;-60
2022/04/25 00:47:45;;;;;;;;;;;;;;;16.64;55.06;100737.41;1036532;28;666;-60
2022/04/25 00:48:36;;;;;;;;;;;;;;;16.63;55.22;100744.63;1037600;28;611;-60
2022/04/25 00:49:26;;;;;;;;;;;;;;;16.64;54.71;100735.56;1037518;28;712;-60
2022/04/25 00:50:17;;;;;;;;;;;;;;;16.65;54.78;100741.81;1037640;28;689;-61
2022/04/25 00:51:07;;;;;;;;;;;;;;;16.65;55.02;100739.97;1033348;28;657;-60
2022/04/25 00:51:58;;;;;;;;;;;;;;;16.65;54.89;100742.66;1033469;28;886;-60
2022/04/25 00:52:48;;;;;;;;;;;;;;;16.65;54.84;100741.81;1033431;28;630;-61
2022/04/25 00:53:39;;;;;;;;;;;;;;;16.63;54.65;100741.09;1033443;28;622;-60
2022/04/25 00:54:32;;;;;;;;;;;;;;;16.62;54.92;100736.66;1036822;28;1632;-60
2022/04/25 00:55:22;;;;;;;;;;;;;;;16.63;54.83;100739.25;1037896;28;990;-60
2022/04/25 00:56:13;;;;;;;;;;;;;;;16.63;54.52;100739.25;1038061;28;670;-61
2022/04/25 00:57:03;;;;;;;;;;;;;;;16.63;54.77;100735.69;1037937;28;630;-60
2022/04/25 00:57:56;;;;;;;;;;;;;;;16.62;54.71;100737.50;1037920;28;1724;-61
2022/04/25 00:58:49;;;;;;;;;;;;;;;16.60;54.86;100735.94;1038109;28;648;-60
2022/04/25 00:59:39;;;;;;;;;;;;;;;16.60;54.99;100739.50;1037923;28;705;-60
2022/04/25 01:00:30;;;;;;;;;;;;;;;16.60;54.89;100738.63;1038689;28;653;-61
2022/04/25 01:01:20;;;;;;;;;;;;;;;16.60;54.98;100735.94;1034325;28;685;-60
2022/04/25 01:02:10;;;;;;;;;;;;;;;16.59;54.89;100736.94;1036683;28;750;-60
2022/04/25 01:03:01;;;;;;;;;;;;;;;16.59;54.90;100734.25;1038389;28;1143;-58
2022/04/25 01:03:52;;;;;;;;;;;;;;;16.60;55.15;100744.03;1038550;28;681;-60
2022/04/25 01:04:43;;;;;;;;;;;;;;;16.60;54.81;100741.31;1038011;28;701;-61
2022/04/25 01:05:34;;;;;;;;;;;;;;;16.59;55.02;100726.19;1038030;28;685;-60
2022/04/25 01:06:24;;;;;;;;;;;;;;;16.58;54.45;100741.47;1038008;28;660;-60
2022/04/25 01:07:14;;;;;;;;;;;;;;;16.57;54.82;100734.38;1038428;28;1906;-60
2022/04/25 01:08:05;;;;;;;;;;;;;;;16.58;54.63;100729.84;1038566;28;614;-60
2022/04/25 01:08:55;;;;;;;;;;;;;;;16.58;54.88;100738.78;1037984;28;638;-60
2022/04/25 01:09:46;;;;;;;;;;;;;;;16.57;54.84;100733.53;1038016;28;614;-60
2022/04/25 01:10:36;;;;;;;;;;;;;;;16.55;54.82;100725.59;1038669;28;748;-60
2022/04/25 01:11:27;;;;;;;;;;;;;;;16.55;54.83;100733.66;1037844;28;660;-60
2022/04/25 01:12:17;;;;;;;;;;;;;;;16.54;55.13;100733.81;1037905;28;619;-60
2022/04/25 01:13:07;;;;;;;;;;;;;;;16.54;54.75;100736.50;1037703;28;721;-60
2022/04/25 01:13:58;;;;;;;;;;;;;;;16.54;54.77;100739.19;1038550;28;708;-60
2022/04/25 01:14:48;;;;;;;;;;;;;;;16.52;54.80;100744.72;1037801;28;778;-60
2022/04/25 01:15:39;;;;;;;;;;;;;;;16.53;54.62;100732.09;1038665;28;614;-60
2022/04/25 01:16:29;;;;;;;;;;;;;;;16.52;54.93;100733.94;1038217;28;989;-60
2022/04/25 01:17:19;;;;;;;;;;;;;;;16.54;54.86;100739.19;1037108;28;653;-59
2022/04/25 01:18:10;;;;;;;;;;;;;;;16.53;54.79;100742.88;1038565;28;649;-60
2022/04/25 01:19:00;;;;;;;;;;;;;;;16.52;55.11;100744.72;1037836;28;647;-61
2022/04/25 01:19:51;;;;;;;;;;;;;;;16.52;54.95;100742.00;1037680;28;642;-60
2022/04/25 01:20:41;;;;;;;;;;;;;;;16.52;54.93;100738.47;1038106;28;681;-60
2022/04/25 01:21:32;;;;;;;;;;;;;;;16.51;55.23;100734.94;1038600;28;696;-60
2022/04/25 01:22:22;;;;;;;;;;;;;;;16.51;54.81;100734.09;1034160;28;655;-60
2022/04/25 01:27:48;;;;;;;;;;;;;;;16.51;54.95;100739.47;1033350;28;709;-60
2022/04/25 01:28:39;;;;;;;;;;;;;;;16.50;54.68;100738.63;1033365;28;663;-60
2022/04/25 01:29:29;;;;;;;;;;;;;;;16.50;54.68;100737.75;1033312;28;654;-60
2022/04/25 01:30:20;;;;;;;;;;;;;;;16.49;54.53;100736.91;1033283;28;668;-60
2022/04/25 01:31:11;;;;;;;;;;;;;;;16.50;54.90;100740.44;1032783;28;710;-60
2022/04/25 01:32:01;;;;;;;;;;;;;;;16.49;54.79;100736.06;1033297;28;630;-61
2022/04/25 01:32:52;;;;;;;;;;;;;;;16.48;54.80;100737.09;1033262;28;655;-60
2022/04/25 01:33:42;;;;;;;;;;;;;;;16.49;54.68;100736.06;1033134;28;679;-60
2022/04/25 01:34:36;;;;;;;;;;;;;;;16.49;54.89;100736.06;1033223;28;647;-60
2022/04/25 01:35:27;;;;;;;;;;;;;;;16.48;54.82;100734.41;1033295;28;666;-61
2022/04/25 01:36:17;;;;;;;;;;;;;;;16.48;54.89;100735.22;1033278;28;693;-61
2022/04/25 01:37:08;;;;;;;;;;;;;;;16.48;54.70;100735.22;1033200;28;573;-61
2022/04/25 01:37:58;;;;;;;;;;;;;;;16.47;54.66;100735.38;1033589;28;611;-61
2022/04/25 01:38:48;;;;;;;;;;;;;;;16.47;54.75;100732.69;1035917;28;618;-61
2022/04/25 01:39:39;;;;;;;;;;;;;;;16.49;54.89;100736.91;1037315;28;686;-61
2022/04/25 01:40:29;;;;;;;;;;;;;;;16.48;54.77;100734.41;1038138;28;788;-59
2022/04/25 01:41:20;;;;;;;;;;;;;;;16.47;54.84;100730.00;1035112;28;701;-61
2022/04/25 01:42:10;;;;;;;;;;;;;;;16.45;54.77;100730.13;1033539;28;726;-61
2022/04/25 01:43:02;;;;;;;;;;;;;;;16.44;54.63;100727.59;1032687;28;656;-61
2022/04/25 01:43:53;;;;;;;;;;;;;;;16.47;54.68;100727.31;1032488;28;670;-61
2022/04/25 01:44:43;;;;;;;;;;;;;;;16.46;54.76;100721.09;1033529;28;655;-59
2022/04/25 01:45:34;;;;;;;;;;;;;;;16.47;54.91;100727.31;1034353;28;662;-61
2022/04/25 01:46:24;;;;;;;;;;;;;;;16.46;54.68;100723.78;1032749;28;682;-61
2022/04/25 01:47:14;;;;;;;;;;;;;;;16.45;54.80;100726.59;1033145;28;1959;-61
2022/04/25 01:48:05;;;;;;;;;;;;;;;16.45;55.10;100721.22;1033278;28;693;-62
2022/04/25 01:48:55;;;;;;;;;;;;;;;16.44;54.72;100722.22;1033359;28;678;-62
2022/04/25 01:49:46;;;;;;;;;;;;;;;16.44;55.04;100719.50;1033126;28;662;-62
2022/04/25 01:50:36;;;;;;;;;;;;;;;16.44;54.48;100722.22;1034141;28;1165;-61
2022/04/25 01:51:27;;;;;;;;;;;;;;;16.43;54.84;100721.34;1036177;28;709;-61
2022/04/25 01:52:17;;;;;;;;;;;;;;;16.42;54.64;100716.97;1038081;28;618;-61
2022/04/25 01:53:07;;;;;;;;;;;;;;;16.42;54.66;100726.88;1037872;28;677;-61
2022/04/25 01:53:58;;;;;;;;;;;;;;;16.42;54.94;100714.28;1037205;28;643;-61
2022/04/25 01:54:48;;;;;;;;;;;;;;;16.43;54.81;100720.50;1037266;28;682;-61
2022/04/25 01:55:39;;;;;;;;;;;;;;;16.42;54.77;100732.25;1037107;28;690;-61
2022/04/25 01:56:29;;;;;;;;;;;;;;;16.42;54.82;100718.81;1036641;28;627;-61
2022/04/25 01:57:19;;;;;;;;;;;;;;;16.42;54.72;100719.66;1036638;28;674;-61
2022/04/25 01:58:10;;;;;;;;;;;;;;;16.43;54.63;100720.50;1036526;28;650;-61
2022/04/25 01:59:00;;;;;;;;;;;;;;;16.41;54.92;100723.34;1037235;28;717;-59
2022/04/25 01:59:51;;;;;;;;;;;;;;;16.42;54.88;100718.81;1037238;28;567;-60
2022/04/25 02:00:43;;;;;;;;;;;;;;;16.41;54.68;100720.63;1036885;28;733;-61
2022/04/25 02:01:34;;;;;;;;;;;;;;;16.42;54.79;100726.88;1036965;28;656;-60
2022/04/25 02:02:25;;;;;;;;;;;;;;;16.40;54.67;100721.63;1037812;28;649;-60
2022/04/25 02:03:15;;;;;;;;;;;;;;;16.41;54.82;100712.56;1035507;28;1572;-60
2022/04/25 02:04:06;;;;;;;;;;;;;;;16.42;54.50;100725.03;1033380;28;682;-60
2022/04/25 02:04:56;;;;;;;;;;;;;;;16.43;54.79;100723.19;1033667;28;659;-60
2022/04/25 02:05:47;;;;;;;;;;;;;;;16.43;54.59;100717.81;1036854;28;709;-60
2022/04/25 02:06:37;;;;;;;;;;;;;;;16.43;54.87;100723.19;1036727;28;667;-60
2022/04/25 02:07:27;;;;;;;;;;;;;;;16.42;54.82;100721.50;1036668;28;2231;-61
2022/04/25 02:08:18;;;;;;;;;;;;;;;16.40;54.60;100723.47;1036543;28;646;-60
2022/04/25 02:09:08;;;;;;;;;;;;;;;16.41;54.61;100722.47;1036551;28;705;-60
2022/04/25 02:09:59;;;;;;;;;;;;;;;16.41;54.47;100717.09;1036531;28;697;-60
2022/04/25 02:11:19;;;;;;;;;;;;;;;16.40;54.53;100715.41;1036458;28;1776;-60
2022/04/25 02:11:59;;;;;;;;;;;;;;;16.41;54.63;100723.34;1035994;28;657;-60
2022/04/25 02:12:50;;;;;;;;;;;;;;;16.40;54.76;100723.47;1037108;28;1669;-60
2022/04/25 02:13:40;;;;;;;;;;;;;;;16.39;54.34;100727.16;1037172;28;615;-60
2022/04/25 02:14:31;;;;;;;;;;;;;;;16.39;54.69;100725.31;1036948;28;705;-61
2022/04/25 02:15:21;;;;;;;;;;;;;;;16.38;54.39;100720.91;1035961;28;697;-60
2022/04/25 02:16:12;;;;;;;;;;;;;;;16.38;54.99;100720.91;1037127;28;653;-60
2022/04/25 02:17:03;;;;;;;;;;;;;;;16.36;54.97;100706.75;1036486;28;623;-60
2022/04/25 02:17:53;;;;;;;;;;;;;;;16.37;54.76;100715.69;1037225;28;694;-60
2022/04/25 02:18:44;;;;;;;;;;;;;;;16.38;54.81;100717.38;1035984;28;659;-60
2022/04/25 02:19:38;;;;;;;;;;;;;;;16.38;54.59;100715.53;1036298;28;689;-60
2022/04/25 02:20:28;;;;;;;;;;;;;;;16.36;54.77;100708.59;1037038;28;654;-60
2022/04/25 02:21:18;;;;;;;;;;;;;;;16.36;54.85;100708.59;1035996;28;658;-59
2022/04/25 02:22:12;;;;;;;;;;;;;;;16.36;55.01;100713.97;1037089;28;654;-59
2022/04/25 02:23:03;;;;;;;;;;;;;;;16.36;54.89;100708.59;1036422;28;674;-59
2022/04/25 02:23:53;;;;;;;;;;;;;;;16.35;54.72;100714.97;1036939;28;1518;-58
2022/04/25 02:24:43;;;;;;;;;;;;;;;16.35;54.82;100713.13;1036887;28;755;-58
2022/04/25 02:25:34;;;;;;;;;;;;;;;16.36;54.70;100714.81;1036386;28;637;-60
2022/04/25 02:26:25;;;;;;;;;;;;;;;16.38;54.95;100712.00;1037131;28;646;-58
2022/04/25 02:27:15;;;;;;;;;;;;;;;16.36;54.69;100709.44;1036942;28;1899;-59
2022/04/25 02:28:06;;;;;;;;;;;;;;;16.36;54.74;100709.44;1037039;28;780;-58
2022/04/25 02:28:56;;;;;;;;;;;;;;;16.33;54.60;100710.56;1037266;28;623;-59
2022/04/25 02:29:48;;;;;;;;;;;;;;;16.35;54.88;100712.28;1037156;28;678;-58
2022/04/25 02:30:38;;;;;;;;;;;;;;;16.33;54.50;100712.41;1036831;28;678;-58
2022/04/25 02:31:28;;;;;;;;;;;;;;;16.34;54.80;100706.03;1036725;28;1076;-59
2022/04/25 02:32:19;;;;;;;;;;;;;;;16.32;54.95;100708.88;1037186;28;618;-58
2022/04/25 02:33:09;;;;;;;;;;;;;;;16.32;54.73;100708.88;1037018;28;653;-59
2022/04/25 02:34:00;;;;;;;;;;;;;;;16.32;54.22;100710.72;1037118;28;708;-59
2022/04/25 02:34:50;;;;;;;;;;;;;;;16.31;54.88;100706.31;1038292;28;679;-58
2022/04/25 02:35:41;;;;;;;;;;;;;;;16.31;54.88;100703.63;1037019;28;732;-58
2022/04/25 02:36:31;;;;;;;;;;;;;;;16.31;54.91;100709.84;1038299;28;689;-60
2022/04/25 02:37:22;;;;;;;;;;;;;;;16.30;54.87;100705.47;1038356;28;740;-60
2022/04/25 02:38:13;;;;;;;;;;;;;;;16.31;54.78;100699.09;1037066;28;642;-58
2022/04/25 02:39:03;;;;;;;;;;;;;;;16.31;54.63;100707.16;1037162;28;759;-58
2022/04/25 02:39:54;;;;;;;;;;;;;;;16.30;55.32;100708.16;1037154;28;650;-58
2022/04/25 02:40:44;;;;;;;;;;;;;;;16.28;54.66;100702.09;1037058;28;757;-61
2022/04/25 02:41:35;;;;;;;;;;;;;;;16.29;54.76;100708.31;1032052;28;682;-60
2022/04/25 02:42:25;;;;;;;;;;;;;;;16.29;54.80;100703.78;1032194;28;697;-61
2022/04/25 02:43:16;;;;;;;;;;;;;;;16.29;54.80;100698.41;1032249;28;663;-58
2022/04/25 02:44:06;;;;;;;;;;;;;;;16.29;54.65;100702.94;1032050;28;674;-59
2022/04/25 02:44:57;;;;;;;;;;;;;;;16.28;54.68;100701.25;1032281;28;697;-59
2022/04/25 02:45:47;;;;;;;;;;;;;;;16.27;54.90;100705.78;1032192;28;704;-59
2022/04/25 02:46:37;;;;;;;;;;;;;;;16.27;54.74;100708.47;1032579;28;650;-59
2022/04/25 02:47:28;;;;;;;;;;;;;;;16.27;54.91;100699.53;1032297;28;1894;-59
2022/04/25 02:48:18;;;;;;;;;;;;;;;16.27;54.84;100708.47;1031964;28;717;-59
2022/04/25 02:49:09;;;;;;;;;;;;;;;16.27;54.75;100711.16;1033681;28;737;-59
2022/04/25 02:49:59;;;;;;;;;;;;;;;16.26;55.10;100712.13;1035348;28;865;-59
2022/04/25 02:50:49;;;;;;;;;;;;;;;16.25;54.82;100707.75;1038569;28;1261;-59
2022/04/25 02:51:40;;;;;;;;;;;;;;;16.25;54.84;100713.13;1040473;28;724;-59
2022/04/25 02:52:30;;;;;;;;;;;;;;;16.24;54.70;100716.81;1039941;28;674;-59
2022/04/25 02:53:24;;;;;;;;;;;;;;;16.25;54.63;100715.81;1039781;28;716;-59
2022/04/25 02:54:14;;;;;;;;;;;;;;;16.24;54.76;100705.19;1039570;28;717;-59
2022/04/25 02:55:04;;;;;;;;;;;;;;;16.23;54.72;100715.09;1039366;28;583;-59
2022/04/25 02:55:55;;;;;;;;;;;;;;;16.23;54.65;100719.63;1036535;28;710;-59
2022/04/25 02:56:45;;;;;;;;;;;;;;;16.24;54.80;100714.09;1036648;28;1031;-59
2022/04/25 02:57:36;;;;;;;;;;;;;;;16.23;54.57;100716.94;1036466;28;781;-60
2022/04/25 02:58:26;;;;;;;;;;;;;;;16.22;54.75;100716.09;1036164;28;643;-59
2022/04/25 02:59:17;;;;;;;;;;;;;;;16.22;55.06;100716.09;1036617;28;702;-59
2022/04/25 03:00:08;;;;;;;;;;;;;;;16.23;54.49;100720.47;1036597;28;647;-60
2022/04/25 03:00:58;;;;;;;;;;;;;;;16.21;54.99;100719.75;1037123;28;662;-59
2022/04/25 03:01:48;;;;;;;;;;;;;;;16.22;54.93;100723.31;1036597;28;693;-59
2022/04/25 03:02:39;;;;;;;;;;;;;;;16.21;54.75;100719.75;1036411;28;630;-60
2022/04/25 03:03:31;;;;;;;;;;;;;;;16.20;54.86;100720.75;1036535;28;682;-60
2022/04/25 03:04:21;;;;;;;;;;;;;;;16.21;54.94;100725.13;1037037;28;774;-59
2022/04/25 03:05:12;;;;;;;;;;;;;;;16.21;55.08;100727.81;1036007;28;876;-59
2022/04/25 03:06:02;;;;;;;;;;;;;;;16.21;54.66;100727.81;1036227;28;639;-59
2022/04/25 03:06:54;;;;;;;;;;;;;;;16.19;54.76;100724.41;1036468;28;658;-60
2022/04/25 03:07:44;;;;;;;;;;;;;;;16.19;54.79;100720.88;1037555;28;705;-60
2022/04/25 03:08:35;;;;;;;;;;;;;;;16.19;54.77;100719.03;1037007;28;748;-60
2022/04/25 03:09:26;;;;;;;;;;;;;;;16.17;54.69;100723.72;1036443;28;639;-60
2022/04/25 03:10:17;;;;;;;;;;;;;;;16.19;54.84;100720.88;1036992;28;732;-60
2022/04/25 03:11:10;;;;;;;;;;;;;;;16.19;54.76;100735.19;1036168;28;1778;-60
2022/04/25 03:12:00;;;;;;;;;;;;;;;16.19;54.79;100726.25;1036844;28;654;-60
2022/04/25 03:12:51;;;;;;;;;;;;;;;16.17;54.46;100723.72;1035877;28;1743;-60
2022/04/25 03:13:42;;;;;;;;;;;;;;;16.17;55.05;100723.72;1037640;28;654;-60
2022/04/25 03:14:34;;;;;;;;;;;;;;;16.17;54.68;100725.53;1037543;28;666;-60
2022/04/25 03:15:25;;;;;;;;;;;;;;;16.18;54.85;100728.09;1036771;28;667;-60
2022/04/25 03:16:16;;;;;;;;;;;;;;;16.16;54.79;100727.38;1035846;28;656;-60
2022/04/25 03:17:06;;;;;;;;;;;;;;;16.17;54.80;100729.09;1036984;28;670;-60
2022/04/25 03:17:56;;;;;;;;;;;;;;;16.17;54.15;100725.53;1037560;28;871;-60
2022/04/25 03:18:48;;;;;;;;;;;;;;;16.17;54.99;100726.41;1036366;28;662;-60
2022/04/25 03:19:38;;;;;;;;;;;;;;;16.17;54.75;100734.47;1037021;28;694;-60
2022/04/25 03:20:29;;;;;;;;;;;;;;;16.15;54.70;100736.44;1037622;28;669;-60
2022/04/25 03:21:20;;;;;;;;;;;;;;;16.14;54.71;100732.03;1036975;28;643;-60
2022/04/25 03:22:10;;;;;;;;;;;;;;;16.13;54.88;100733.03;1037014;28;694;-60
2022/04/25 03:23:01;;;;;;;;;;;;;;;16.13;55.00;100730.34;1036010;28;705;-61
2022/04/25 03:23:53;;;;;;;;;;;;;;;16.16;54.51;100729.22;1035919;28;639;-60
2022/04/25 03:24:43;;;;;;;;;;;;;;;16.15;54.70;100730.22;1037097;28;764;-60
2022/04/25 03:25:34;;;;;;;;;;;;;;;16.15;54.70;100735.59;1037007;28;647;-60
2022/04/25 03:26:24;;;;;;;;;;;;;;;16.15;54.39;100728.38;1037507;28;644;-60
2022/04/25 03:27:15;;;;;;;;;;;;;;;16.14;54.63;100734.72;1035942;28;1894;-60
2022/04/25 03:28:05;;;;;;;;;;;;;;;16.13;54.72;100730.34;1036985;28;607;-60
2022/04/25 03:28:55;;;;;;;;;;;;;;;16.11;54.53;100726.97;1036454;28;757;-60
2022/04/25 03:29:46;;;;;;;;;;;;;;;16.15;54.52;100732.91;1035816;28;674;-60
2022/04/25 03:30:36;;;;;;;;;;;;;;;16.13;54.70;100730.34;1035990;28;643;-60
2022/04/25 03:31:27;;;;;;;;;;;;;;;16.13;54.52;100730.34;1037558;28;646;-60
2022/04/25 03:32:17;;;;;;;;;;;;;;;16.13;54.78;100732.19;1035774;28;619;-60
2022/04/25 03:33:10;;;;;;;;;;;;;;;16.12;54.90;100731.31;1036044;28;690;-60
2022/04/25 03:34:01;;;;;;;;;;;;;;;16.11;54.70;100724.28;1044224;28;965;-60
2022/04/25 03:34:52;;;;;;;;;;;;;;;16.09;54.63;100728.09;1043294;28;615;-60
2022/04/25 03:35:46;;;;;;;;;;;;;;;16.09;54.68;100723.56;1036372;28;658;-61
2022/04/25 03:36:37;;;;;;;;;;;;;;;16.08;54.69;100729.06;1036835;28;651;-61
2022/04/25 03:37:28;;;;;;;;;;;;;;;16.09;54.68;100728.09;1036842;28;644;-60
2022/04/25 03:38:21;;;;;;;;;;;;;;;16.08;54.90;100721.88;1036558;28;772;-60
2022/04/25 03:39:11;;;;;;;;;;;;;;;16.07;54.70;100724.69;1036330;28;667;-60
2022/04/25 03:40:04;;;;;;;;;;;;;;;16.06;54.79;100729.22;1037557;28;768;-60
2022/04/25 03:40:55;;;;;;;;;;;;;;;16.06;54.61;100729.22;1036706;28;1693;-60
2022/04/25 03:41:45;;;;;;;;;;;;;;;16.05;54.50;100724.81;1036503;28;721;-60
2022/04/25 03:42:36;;;;;;;;;;;;;;;16.05;54.85;100723.97;1036951;28;697;-60
2022/04/25 03:43:27;;;;;;;;;;;;;;;16.05;54.79;100721.28;1037453;28;607;-60
2022/04/25 03:44:17;;;;;;;;;;;;;;;16.06;54.74;100731.06;1038779;28;697;-60
2022/04/25 03:45:10;;;;;;;;;;;;;;;16.05;54.98;100730.19;1033119;28;662;-60
2022/04/25 03:46:01;;;;;;;;;;;;;;;16.06;54.56;100731.06;1032802;28;623;-60
2022/04/25 03:46:51;;;;;;;;;;;;;;;16.07;54.82;100727.38;1033713;28;651;-60
2022/04/25 03:47:42;;;;;;;;;;;;;;;16.06;54.69;100729.22;1033571;28;674;-60
2022/04/25 03:48:32;;;;;;;;;;;;;;;16.06;54.99;100726.53;1033682;28;634;-60
2022/04/25 03:49:22;;;;;;;;;;;;;;;16.05;54.72;100732.88;1033093;28;647;-59
2022/04/25 03:50:13;;;;;;;;;;;;;;;16.04;54.60;100728.50;1033057;28;627;-58
2022/04/25 03:51:03;;;;;;;;;;;;;;;16.04;54.72;100730.34;1033267;28;670;-59
2022/04/25 03:51:54;;;;;;;;;;;;;;;16.04;54.97;100724.97;1033025;28;659;-59
2022/04/25 03:52:44;;;;;;;;;;;;;;;16.03;54.85;100729.47;1033023;28;632;-59
2022/04/25 03:53:35;;;;;;;;;;;;;;;16.03;54.78;100736.69;1033047;28;713;-59
2022/04/25 03:57:53;;;;;;;;;;;;;;;16.02;54.95;100735.84;1033652;28;693;-59
2022/04/25 03:58:43;;;;;;;;;;;;;;;16.02;55.00;100738.53;1032873;28;691;-59
2022/04/25 03:59:34;;;;;;;;;;;;;;;16.02;54.60;100735.84;1033072;28;618;-59
2022/04/25 04:00:25;;;;;;;;;;;;;;;16.03;54.79;100740.22;1034276;28;626;-60
2022/04/25 04:01:15;;;;;;;;;;;;;;;16.03;54.51;100742.06;1036919;28;1142;-60
2022/04/25 04:02:06;;;;;;;;;;;;;;;16.03;54.95;100742.06;1040355;28;622;-64
2022/04/25 04:02:58;;;;;;;;;;;;;;;16.03;54.41;100737.53;1043082;28;945;-62
2022/04/25 04:03:48;;;;;;;;;;;;;;;16.01;54.76;100758.34;1039542;28;764;-63
2022/04/25 04:04:39;;;;;;;;;;;;;;;16.01;54.89;100747.59;1037343;28;654;-62
2022/04/25 04:05:29;;;;;;;;;;;;;;;16.00;54.25;100740.50;1037017;28;701;-62
2022/04/25 04:06:20;;;;;;;;;;;;;;;16.05;54.42;100743.63;1036826;28;667;-63
2022/04/25 04:07:10;;;;;;;;;;;;;;;16.06;54.69;100737.28;1038181;28;1963;-63
2022/04/25 04:08:01;;;;;;;;;;;;;;;16.06;54.44;100747.19;1039967;28;713;-63
2022/04/25 04:08:51;;;;;;;;;;;;;;;16.05;54.38;100749.00;1039993;28;1618;-62
2022/04/25 04:09:44;;;;;;;;;;;;;;;16.06;54.50;100745.34;1038568;28;686;-63
2022/04/25 04:10:35;;;;;;;;;;;;;;;16.10;54.56;100752.16;1036660;28;662;-62
2022/04/25 04:11:46;;;;;;;;;;;;;;;16.10;54.72;100746.78;1037442;28;709;-62
2022/04/25 04:12:36;;;;;;;;;;;;;;;16.09;54.55;100755.81;1037578;28;646;-63
2022/04/25 04:13:26;;;;;;;;;;;;;;;16.07;54.64;100746.19;1038475;28;693;-63
2022/04/25 04:14:17;;;;;;;;;;;;;;;16.07;54.71;100752.41;1037598;28;645;-63
2022/04/25 04:15:07;;;;;;;;;;;;;;;16.08;54.84;100751.44;1040417;28;685;-62
2022/04/25 04:15:58;;;;;;;;;;;;;;;16.07;54.54;100748.88;1037414;28;690;-63
2022/04/25 04:16:48;;;;;;;;;;;;;;;16.03;54.64;100752.81;1039338;28;693;-63
2022/04/25 04:17:38;;;;;;;;;;;;;;;16.05;54.80;100749.00;1039003;28;764;-63
2022/04/25 04:18:29;;;;;;;;;;;;;;;16.04;54.58;100754.53;1037611;28;683;-64
2022/04/25 04:19:20;;;;;;;;;;;;;;;16.03;54.68;100750.13;1040406;28;690;-63
2022/04/25 04:20:12;;;;;;;;;;;;;;;16.03;54.50;100750.13;1037091;28;658;-64
2022/04/25 04:21:03;;;;;;;;;;;;;;;16.00;54.97;100762.00;1037917;28;584;-64
2022/04/25 04:21:53;;;;;;;;;;;;;;;15.98;54.98;100754.06;1036960;28;678;-63
2022/04/25 04:22:44;;;;;;;;;;;;;;;15.98;55.05;100758.59;1037919;28;670;-64
2022/04/25 04:23:34;;;;;;;;;;;;;;;15.97;55.13;100751.53;1038687;28;638;-64
2022/04/25 04:24:25;;;;;;;;;;;;;;;15.95;55.20;100761.56;1037231;28;681;-63
2022/04/25 04:25:16;;;;;;;;;;;;;;;15.94;55.20;100762.56;1037860;28;651;-62
2022/04/25 04:26:07;;;;;;;;;;;;;;;15.94;55.02;100752.63;1037721;28;694;-63
2022/04/25 04:26:57;;;;;;;;;;;;;;;15.94;55.07;100760.69;1036775;28;655;-63
2022/04/25 04:27:49;;;;;;;;;;;;;;;15.93;54.86;100760.88;1036959;28;713;-63
2022/04/25 04:28:41;;;;;;;;;;;;;;;15.92;55.00;100764.53;1037001;28;654;-63
2022/04/25 04:29:31;;;;;;;;;;;;;;;15.92;55.15;100764.53;1036784;28;698;-63
2022/04/25 04:30:22;;;;;;;;;;;;;;;15.91;55.06;100757.47;1038759;28;709;-63
2022/04/25 04:31:12;;;;;;;;;;;;;;;15.90;54.97;100762.00;1037313;28;627;-64
2022/04/25 04:32:02;;;;;;;;;;;;;;;15.91;55.13;100762.84;1037908;28;740;-64
2022/04/25 04:32:53;;;;;;;;;;;;;;;15.91;55.18;100757.47;1038433;28;681;-64
2022/04/25 04:33:43;;;;;;;;;;;;;;;15.92;54.86;100770.78;1037455;28;651;-63
2022/04/25 04:34:34;;;;;;;;;;;;;;;15.90;55.13;100762.00;1036701;28;639;-63
2022/04/25 04:36:34;;;;;;;;;;;;;;;15.91;54.98;100762.84;1038714;28;655;-62